sensor_id;sensor_type;location;lat;lon;timestamp;P1;durP1;ratioP1;P2;durP2;ratioP2
19038;SDS011;9652;49.014;12.052;2023-02-05T00:01:30;6.63;;;6.03;;
19038;SDS011;9652;49.014;12.052;2023-02-05T00:03:58;6.97;;;6.37;;
19038;SDS011;9652;49.014;12.052;2023-02-05T00:06:25;8.07;;;6.70;;
19038;SDS011;9652;49.014;12.052;2023-02-05T00:08:52;6.90;;;6.20;;
19038;SDS011;9652;49.014;12.052;2023-02-05T00:11:22;7.07;;;6.47;;
19038;SDS011;9652;49.014;12.052;2023-02-05T00:13:50;6.90;;;6.20;;
19038;SDS011;9652;49.014;12.052;2023-02-05T00:16:18;6.30;;;5.70;;
19038;SDS011;9652;49.014;12.052;2023-02-05T00:18:47;6.87;;;6.30;;
19038;SDS011;9652;49.014;12.052;2023-02-05T00:21:15;6.73;;;6.33;;
19038;SDS011;9652;49.014;12.052;2023-02-05T00:23:44;7.57;;;7.00;;
19038;SDS011;9652;49.014;12.052;2023-02-05T00:26:11;6.70;;;6.10;;
19038;SDS011;9652;49.014;12.052;2023-02-05T00:28:41;7.10;;;6.17;;
19038;SDS011;9652;49.014;12.052;2023-02-05T00:31:09;6.73;;;6.23;;
19038;SDS011;9652;49.014;12.052;2023-02-05T00:33:38;7.30;;;6.70;;
19038;SDS011;9652;49.014;12.052;2023-02-05T00:36:09;5.97;;;5.47;;
19038;SDS011;9652;49.014;12.052;2023-02-05T00:38:38;6.80;;;6.20;;
19038;SDS011;9652;49.014;12.052;2023-02-05T00:41:05;6.93;;;6.43;;
19038;SDS011;9652;49.014;12.052;2023-02-05T00:43:32;6.93;;;5.97;;
19038;SDS011;9652;49.014;12.052;2023-02-05T00:46:01;6.53;;;5.93;;
19038;SDS011;9652;49.014;12.052;2023-02-05T00:48:28;8.30;;;7.43;;
19038;SDS011;9652;49.014;12.052;2023-02-05T00:50:56;7.13;;;6.53;;
19038;SDS011;9652;49.014;12.052;2023-02-05T00:53:23;6.87;;;6.37;;
19038;SDS011;9652;49.014;12.052;2023-02-05T00:55:51;9.43;;;7.10;;
19038;SDS011;9652;49.014;12.052;2023-02-05T00:58:18;7.67;;;6.80;;
19038;SDS011;9652;49.014;12.052;2023-02-05T01:00:46;7.43;;;6.83;;
19038;SDS011;9652;49.014;12.052;2023-02-05T01:03:16;7.73;;;7.03;;
19038;SDS011;9652;49.014;12.052;2023-02-05T01:05:44;8.10;;;7.30;;
19038;SDS011;9652;49.014;12.052;2023-02-05T01:08:12;7.13;;;6.57;;
19038;SDS011;9652;49.014;12.052;2023-02-05T01:10:41;6.93;;;6.43;;
19038;SDS011;9652;49.014;12.052;2023-02-05T01:13:09;6.50;;;6.00;;
19038;SDS011;9652;49.014;12.052;2023-02-05T01:15:37;8.27;;;6.90;;
19038;SDS011;9652;49.014;12.052;2023-02-05T01:18:05;6.53;;;5.90;;
19038;SDS011;9652;49.014;12.052;2023-02-05T01:20:36;7.27;;;6.67;;
19038;SDS011;9652;49.014;12.052;2023-02-05T01:23:04;6.77;;;6.27;;
19038;SDS011;9652;49.014;12.052;2023-02-05T01:25:31;7.20;;;6.50;;
19038;SDS011;9652;49.014;12.052;2023-02-05T01:27:58;7.87;;;7.13;;
19038;SDS011;9652;49.014;12.052;2023-02-05T01:30:25;7.33;;;6.63;;
19038;SDS011;9652;49.014;12.052;2023-02-05T01:32:52;7.00;;;6.50;;
19038;SDS011;9652;49.014;12.052;2023-02-05T01:35:19;7.67;;;7.07;;
19038;SDS011;9652;49.014;12.052;2023-02-05T01:37:48;8.23;;;7.50;;
19038;SDS011;9652;49.014;12.052;2023-02-05T01:40:15;7.60;;;6.90;;
19038;SDS011;9652;49.014;12.052;2023-02-05T01:42:44;6.63;;;6.03;;
19038;SDS011;9652;49.014;12.052;2023-02-05T01:45:37;7.57;;;6.87;;
19038;SDS011;9652;49.014;12.052;2023-02-05T01:48:16;9.33;;;7.27;;
19038;SDS011;9652;49.014;12.052;2023-02-05T01:50:50;6.90;;;6.20;;
19038;SDS011;9652;49.014;12.052;2023-02-05T01:53:25;9.17;;;7.17;;
19038;SDS011;9652;49.014;12.052;2023-02-05T01:55:57;9.63;;;6.83;;
19038;SDS011;9652;49.014;12.052;2023-02-05T01:58:29;6.27;;;5.77;;
19038;SDS011;9652;49.014;12.052;2023-02-05T02:01:00;6.20;;;5.70;;
19038;SDS011;9652;49.014;12.052;2023-02-05T02:03:27;5.63;;;5.13;;
19038;SDS011;9652;49.014;12.052;2023-02-05T02:05:57;7.30;;;6.70;;
19038;SDS011;9652;49.014;12.052;2023-02-05T02:08:26;6.90;;;6.40;;
19038;SDS011;9652;49.014;12.052;2023-02-05T02:10:54;7.60;;;7.00;;
19038;SDS011;9652;49.014;12.052;2023-02-05T02:13:23;7.33;;;6.73;;
19038;SDS011;9652;49.014;12.052;2023-02-05T02:15:53;7.27;;;6.67;;
19038;SDS011;9652;49.014;12.052;2023-02-05T02:18:22;7.60;;;6.90;;
19038;SDS011;9652;49.014;12.052;2023-02-05T02:20:57;6.93;;;6.27;;
19038;SDS011;9652;49.014;12.052;2023-02-05T02:24:05;6.90;;;6.37;;
19038;SDS011;9652;49.014;12.052;2023-02-05T02:27:04;7.03;;;6.37;;
19038;SDS011;9652;49.014;12.052;2023-02-05T02:30:02;8.13;;;7.33;;
19038;SDS011;9652;49.014;12.052;2023-02-05T02:32:42;7.63;;;7.00;;
19038;SDS011;9652;49.014;12.052;2023-02-05T02:35:22;7.43;;;6.73;;
19038;SDS011;9652;49.014;12.052;2023-02-05T02:37:59;7.57;;;6.87;;
19038;SDS011;9652;49.014;12.052;2023-02-05T02:40:35;7.13;;;6.63;;
19038;SDS011;9652;49.014;12.052;2023-02-05T02:43:12;7.30;;;6.60;;
19038;SDS011;9652;49.014;12.052;2023-02-05T02:45:47;7.10;;;6.60;;
19038;SDS011;9652;49.014;12.052;2023-02-05T02:48:19;7.00;;;6.43;;
19038;SDS011;9652;49.014;12.052;2023-02-05T02:50:51;6.53;;;6.03;;
19038;SDS011;9652;49.014;12.052;2023-02-05T02:53:23;7.03;;;6.40;;
19038;SDS011;9652;49.014;12.052;2023-02-05T02:55:55;7.93;;;7.13;;
19038;SDS011;9652;49.014;12.052;2023-02-05T02:58:29;9.13;;;8.30;;
19038;SDS011;9652;49.014;12.052;2023-02-05T03:01:01;9.40;;;7.63;;
19038;SDS011;9652;49.014;12.052;2023-02-05T03:03:34;8.23;;;7.30;;
19038;SDS011;9652;49.014;12.052;2023-02-05T03:06:08;7.17;;;6.57;;
19038;SDS011;9652;49.014;12.052;2023-02-05T03:08:43;7.53;;;7.00;;
19038;SDS011;9652;49.014;12.052;2023-02-05T03:11:17;7.50;;;6.90;;
19038;SDS011;9652;49.014;12.052;2023-02-05T03:13:46;7.53;;;6.50;;
19038;SDS011;9652;49.014;12.052;2023-02-05T03:16:17;6.80;;;6.27;;
19038;SDS011;9652;49.014;12.052;2023-02-05T03:18:46;7.33;;;6.63;;
19038;SDS011;9652;49.014;12.052;2023-02-05T03:21:16;7.13;;;6.60;;
19038;SDS011;9652;49.014;12.052;2023-02-05T03:23:48;7.67;;;7.07;;
19038;SDS011;9652;49.014;12.052;2023-02-05T03:26:22;6.87;;;6.37;;
19038;SDS011;9652;49.014;12.052;2023-02-05T03:29:01;7.37;;;6.80;;
19038;SDS011;9652;49.014;12.052;2023-02-05T03:31:34;8.13;;;7.33;;
19038;SDS011;9652;49.014;12.052;2023-02-05T03:34:15;7.50;;;6.97;;
19038;SDS011;9652;49.014;12.052;2023-02-05T03:37:05;7.47;;;6.87;;
19038;SDS011;9652;49.014;12.052;2023-02-05T03:39:44;8.27;;;7.47;;
19038;SDS011;9652;49.014;12.052;2023-02-05T03:42:33;7.57;;;6.97;;
19038;SDS011;9652;49.014;12.052;2023-02-05T03:45:20;8.17;;;7.57;;
19038;SDS011;9652;49.014;12.052;2023-02-05T03:48:03;7.90;;;7.20;;
19038;SDS011;9652;49.014;12.052;2023-02-05T03:50:48;6.90;;;6.30;;
19038;SDS011;9652;49.014;12.052;2023-02-05T03:53:28;8.00;;;7.20;;
19038;SDS011;9652;49.014;12.052;2023-02-05T03:56:06;7.83;;;7.23;;
19038;SDS011;9652;49.014;12.052;2023-02-05T03:58:42;7.37;;;6.77;;
19038;SDS011;9652;49.014;12.052;2023-02-05T04:01:18;8.17;;;7.37;;
19038;SDS011;9652;49.014;12.052;2023-02-05T04:03:46;7.40;;;6.70;;
19038;SDS011;9652;49.014;12.052;2023-02-05T04:06:13;7.57;;;7.07;;
19038;SDS011;9652;49.014;12.052;2023-02-05T04:08:42;8.80;;;8.00;;
19038;SDS011;9652;49.014;12.052;2023-02-05T04:11:10;7.60;;;7.00;;
19038;SDS011;9652;49.014;12.052;2023-02-05T04:13:38;7.87;;;7.07;;
19038;SDS011;9652;49.014;12.052;2023-02-05T04:16:08;7.70;;;7.10;;
19038;SDS011;9652;49.014;12.052;2023-02-05T04:18:37;7.87;;;7.17;;
19038;SDS011;9652;49.014;12.052;2023-02-05T04:21:05;7.23;;;6.57;;
19038;SDS011;9652;49.014;12.052;2023-02-05T04:23:35;7.33;;;6.67;;
19038;SDS011;9652;49.014;12.052;2023-02-05T04:26:03;7.57;;;6.60;;
19038;SDS011;9652;49.014;12.052;2023-02-05T04:28:35;6.77;;;6.17;;
19038;SDS011;9652;49.014;12.052;2023-02-05T04:31:05;7.50;;;6.63;;
19038;SDS011;9652;49.014;12.052;2023-02-05T04:33:33;7.57;;;6.90;;
19038;SDS011;9652;49.014;12.052;2023-02-05T04:36:02;6.87;;;6.27;;
19038;SDS011;9652;49.014;12.052;2023-02-05T04:38:30;7.13;;;6.63;;
19038;SDS011;9652;49.014;12.052;2023-02-05T04:40:58;7.37;;;6.77;;
19038;SDS011;9652;49.014;12.052;2023-02-05T04:43:25;8.40;;;7.63;;
19038;SDS011;9652;49.014;12.052;2023-02-05T04:45:52;6.70;;;6.20;;
19038;SDS011;9652;49.014;12.052;2023-02-05T04:48:19;7.63;;;7.03;;
19038;SDS011;9652;49.014;12.052;2023-02-05T04:50:46;6.53;;;5.93;;
19038;SDS011;9652;49.014;12.052;2023-02-05T04:53:15;7.10;;;6.53;;
19038;SDS011;9652;49.014;12.052;2023-02-05T04:55:42;7.37;;;6.77;;
19038;SDS011;9652;49.014;12.052;2023-02-05T04:58:09;8.17;;;7.47;;
19038;SDS011;9652;49.014;12.052;2023-02-05T05:00:36;6.43;;;5.90;;
19038;SDS011;9652;49.014;12.052;2023-02-05T05:03:03;7.73;;;7.03;;
19038;SDS011;9652;49.014;12.052;2023-02-05T05:05:30;6.70;;;6.20;;
19038;SDS011;9652;49.014;12.052;2023-02-05T05:08:00;6.50;;;5.90;;
19038;SDS011;9652;49.014;12.052;2023-02-05T05:10:28;9.33;;;6.77;;
19038;SDS011;9652;49.014;12.052;2023-02-05T05:12:55;7.20;;;6.60;;
19038;SDS011;9652;49.014;12.052;2023-02-05T05:15:22;6.07;;;5.57;;
19038;SDS011;9652;49.014;12.052;2023-02-05T05:17:49;6.97;;;6.47;;
19038;SDS011;9652;49.014;12.052;2023-02-05T05:20:16;6.87;;;6.27;;
19038;SDS011;9652;49.014;12.052;2023-02-05T05:22:44;7.07;;;6.50;;
19038;SDS011;9652;49.014;12.052;2023-02-05T05:25:11;6.50;;;6.00;;
19038;SDS011;9652;49.014;12.052;2023-02-05T05:27:39;6.70;;;6.07;;
19038;SDS011;9652;49.014;12.052;2023-02-05T05:30:06;6.57;;;6.10;;
19038;SDS011;9652;49.014;12.052;2023-02-05T05:32:35;7.10;;;6.50;;
19038;SDS011;9652;49.014;12.052;2023-02-05T05:35:02;6.53;;;5.83;;
19038;SDS011;9652;49.014;12.052;2023-02-05T05:37:30;7.27;;;6.57;;
19038;SDS011;9652;49.014;12.052;2023-02-05T05:39:57;6.57;;;5.97;;
19038;SDS011;9652;49.014;12.052;2023-02-05T05:42:43;6.10;;;5.60;;
19038;SDS011;9652;49.014;12.052;2023-02-05T05:45:27;6.63;;;6.03;;
19038;SDS011;9652;49.014;12.052;2023-02-05T05:47:54;6.97;;;6.47;;
19038;SDS011;9652;49.014;12.052;2023-02-05T05:50:21;5.97;;;5.57;;
19038;SDS011;9652;49.014;12.052;2023-02-05T05:52:49;7.17;;;6.50;;
19038;SDS011;9652;49.014;12.052;2023-02-05T05:55:16;7.37;;;6.77;;
19038;SDS011;9652;49.014;12.052;2023-02-05T05:57:44;7.60;;;6.90;;
19038;SDS011;9652;49.014;12.052;2023-02-05T06:00:12;8.27;;;6.37;;
19038;SDS011;9652;49.014;12.052;2023-02-05T06:02:40;6.57;;;6.00;;
19038;SDS011;9652;49.014;12.052;2023-02-05T06:05:08;7.03;;;6.43;;
19038;SDS011;9652;49.014;12.052;2023-02-05T06:07:36;7.57;;;6.73;;
19038;SDS011;9652;49.014;12.052;2023-02-05T06:10:03;7.37;;;6.70;;
19038;SDS011;9652;49.014;12.052;2023-02-05T06:12:31;5.67;;;5.17;;
19038;SDS011;9652;49.014;12.052;2023-02-05T06:14:59;6.73;;;6.23;;
19038;SDS011;9652;49.014;12.052;2023-02-05T06:17:26;6.43;;;5.93;;
19038;SDS011;9652;49.014;12.052;2023-02-05T06:19:54;7.37;;;6.67;;
19038;SDS011;9652;49.014;12.052;2023-02-05T06:22:21;5.87;;;5.37;;
19038;SDS011;9652;49.014;12.052;2023-02-05T06:24:48;7.70;;;7.10;;
19038;SDS011;9652;49.014;12.052;2023-02-05T06:27:15;7.17;;;6.67;;
19038;SDS011;9652;49.014;12.052;2023-02-05T06:29:42;7.53;;;7.03;;
19038;SDS011;9652;49.014;12.052;2023-02-05T06:32:10;7.40;;;6.77;;
19038;SDS011;9652;49.014;12.052;2023-02-05T06:34:37;6.43;;;5.93;;
19038;SDS011;9652;49.014;12.052;2023-02-05T06:37:04;6.73;;;6.23;;
19038;SDS011;9652;49.014;12.052;2023-02-05T06:39:31;8.40;;;7.70;;
19038;SDS011;9652;49.014;12.052;2023-02-05T06:41:58;7.30;;;6.70;;
19038;SDS011;9652;49.014;12.052;2023-02-05T06:44:25;6.63;;;6.13;;
19038;SDS011;9652;49.014;12.052;2023-02-05T06:46:52;7.43;;;6.63;;
19038;SDS011;9652;49.014;12.052;2023-02-05T06:49:21;6.93;;;6.43;;
19038;SDS011;9652;49.014;12.052;2023-02-05T06:51:48;8.10;;;7.50;;
19038;SDS011;9652;49.014;12.052;2023-02-05T06:54:15;6.53;;;5.93;;
19038;SDS011;9652;49.014;12.052;2023-02-05T06:56:42;7.00;;;6.27;;
19038;SDS011;9652;49.014;12.052;2023-02-05T06:59:09;10.37;;;7.00;;
19038;SDS011;9652;49.014;12.052;2023-02-05T07:01:36;7.90;;;7.20;;
19038;SDS011;9652;49.014;12.052;2023-02-05T07:04:03;7.20;;;6.50;;
19038;SDS011;9652;49.014;12.052;2023-02-05T07:06:32;7.37;;;6.77;;
19038;SDS011;9652;49.014;12.052;2023-02-05T07:08:59;7.97;;;7.27;;
19038;SDS011;9652;49.014;12.052;2023-02-05T07:11:26;8.07;;;7.37;;
19038;SDS011;9652;49.014;12.052;2023-02-05T07:13:53;8.47;;;7.77;;
19038;SDS011;9652;49.014;12.052;2023-02-05T07:16:20;10.40;;;7.73;;
19038;SDS011;9652;49.014;12.052;2023-02-05T07:18:47;7.80;;;7.00;;
19038;SDS011;9652;49.014;12.052;2023-02-05T07:21:15;8.40;;;7.30;;
19038;SDS011;9652;49.014;12.052;2023-02-05T07:23:43;9.47;;;7.80;;
19038;SDS011;9652;49.014;12.052;2023-02-05T07:26:11;7.63;;;6.90;;
19038;SDS011;9652;49.014;12.052;2023-02-05T07:28:40;7.57;;;6.90;;
19038;SDS011;9652;49.014;12.052;2023-02-05T07:31:08;9.03;;;8.17;;
19038;SDS011;9652;49.014;12.052;2023-02-05T07:33:39;10.83;;;7.47;;
19038;SDS011;9652;49.014;12.052;2023-02-05T07:36:08;10.50;;;7.97;;
19038;SDS011;9652;49.014;12.052;2023-02-05T07:38:37;8.33;;;7.43;;
19038;SDS011;9652;49.014;12.052;2023-02-05T07:41:06;8.00;;;7.17;;
19038;SDS011;9652;49.014;12.052;2023-02-05T07:43:35;7.70;;;7.00;;
19038;SDS011;9652;49.014;12.052;2023-02-05T07:46:04;9.53;;;7.77;;
19038;SDS011;9652;49.014;12.052;2023-02-05T07:48:34;9.07;;;7.20;;
19038;SDS011;9652;49.014;12.052;2023-02-05T07:51:02;7.90;;;6.80;;
19038;SDS011;9652;49.014;12.052;2023-02-05T07:53:30;8.80;;;7.90;;
19038;SDS011;9652;49.014;12.052;2023-02-05T07:56:00;7.33;;;6.73;;
19038;SDS011;9652;49.014;12.052;2023-02-05T07:58:30;7.37;;;6.57;;
19038;SDS011;9652;49.014;12.052;2023-02-05T08:00:59;8.63;;;7.77;;
19038;SDS011;9652;49.014;12.052;2023-02-05T08:03:27;8.60;;;7.70;;
19038;SDS011;9652;49.014;12.052;2023-02-05T08:05:54;7.57;;;6.70;;
19038;SDS011;9652;49.014;12.052;2023-02-05T08:08:21;9.93;;;6.57;;
19038;SDS011;9652;49.014;12.052;2023-02-05T08:10:53;6.67;;;6.03;;
19038;SDS011;9652;49.014;12.052;2023-02-05T08:13:22;6.63;;;5.93;;
19038;SDS011;9652;49.014;12.052;2023-02-05T08:15:50;7.90;;;6.43;;
19038;SDS011;9652;49.014;12.052;2023-02-05T08:18:18;9.07;;;7.20;;
19038;SDS011;9652;49.014;12.052;2023-02-05T08:20:45;13.03;;;8.20;;
19038;SDS011;9652;49.014;12.052;2023-02-05T08:23:12;7.30;;;6.70;;
19038;SDS011;9652;49.014;12.052;2023-02-05T08:25:39;7.27;;;6.60;;
19038;SDS011;9652;49.014;12.052;2023-02-05T08:28:06;6.93;;;6.30;;
19038;SDS011;9652;49.014;12.052;2023-02-05T08:30:34;6.93;;;6.43;;
19038;SDS011;9652;49.014;12.052;2023-02-05T08:33:02;7.33;;;6.70;;
19038;SDS011;9652;49.014;12.052;2023-02-05T08:35:29;6.63;;;6.13;;
19038;SDS011;9652;49.014;12.052;2023-02-05T08:37:56;7.03;;;6.43;;
19038;SDS011;9652;49.014;12.052;2023-02-05T08:40:24;6.90;;;6.30;;
19038;SDS011;9652;49.014;12.052;2023-02-05T08:42:51;6.30;;;5.80;;
19038;SDS011;9652;49.014;12.052;2023-02-05T08:45:21;7.57;;;5.67;;
19038;SDS011;9652;49.014;12.052;2023-02-05T08:47:49;6.43;;;5.83;;
19038;SDS011;9652;49.014;12.052;2023-02-05T08:50:18;5.90;;;5.27;;
19038;SDS011;9652;49.014;12.052;2023-02-05T08:52:46;5.37;;;4.97;;
19038;SDS011;9652;49.014;12.052;2023-02-05T08:55:14;5.40;;;4.90;;
19038;SDS011;9652;49.014;12.052;2023-02-05T08:57:43;5.37;;;4.83;;
19038;SDS011;9652;49.014;12.052;2023-02-05T09:00:11;5.40;;;4.90;;
19038;SDS011;9652;49.014;12.052;2023-02-05T09:02:40;5.43;;;5.03;;
19038;SDS011;9652;49.014;12.052;2023-02-05T09:05:09;5.57;;;5.07;;
19038;SDS011;9652;49.014;12.052;2023-02-05T09:07:38;6.40;;;6.00;;
19038;SDS011;9652;49.014;12.052;2023-02-05T09:10:06;6.47;;;5.97;;
19038;SDS011;9652;49.014;12.052;2023-02-05T09:12:35;6.00;;;5.50;;
19038;SDS011;9652;49.014;12.052;2023-02-05T09:15:03;5.70;;;5.13;;
19038;SDS011;9652;49.014;12.052;2023-02-05T09:17:31;5.47;;;5.07;;
19038;SDS011;9652;49.014;12.052;2023-02-05T09:19:58;5.70;;;5.23;;
19038;SDS011;9652;49.014;12.052;2023-02-05T09:22:25;4.70;;;4.30;;
19038;SDS011;9652;49.014;12.052;2023-02-05T09:24:53;5.97;;;5.40;;
19038;SDS011;9652;49.014;12.052;2023-02-05T09:27:20;5.93;;;5.43;;
19038;SDS011;9652;49.014;12.052;2023-02-05T09:29:47;5.43;;;4.93;;
19038;SDS011;9652;49.014;12.052;2023-02-05T09:32:14;5.33;;;4.83;;
19038;SDS011;9652;49.014;12.052;2023-02-05T09:34:41;5.73;;;5.13;;
19038;SDS011;9652;49.014;12.052;2023-02-05T09:37:08;5.63;;;5.13;;
19038;SDS011;9652;49.014;12.052;2023-02-05T09:39:35;5.63;;;5.13;;
19038;SDS011;9652;49.014;12.052;2023-02-05T09:42:07;5.93;;;5.40;;
19038;SDS011;9652;49.014;12.052;2023-02-05T09:44:48;6.87;;;5.40;;
19038;SDS011;9652;49.014;12.052;2023-02-05T09:47:33;6.67;;;5.97;;
19038;SDS011;9652;49.014;12.052;2023-02-05T09:50:11;5.37;;;4.87;;
19038;SDS011;9652;49.014;12.052;2023-02-05T09:52:43;5.83;;;5.43;;
19038;SDS011;9652;49.014;12.052;2023-02-05T09:55:16;6.17;;;5.57;;
19038;SDS011;9652;49.014;12.052;2023-02-05T09:57:50;6.10;;;5.50;;
19038;SDS011;9652;49.014;12.052;2023-02-05T10:00:23;6.10;;;5.50;;
19038;SDS011;9652;49.014;12.052;2023-02-05T10:02:56;5.13;;;4.60;;
19038;SDS011;9652;49.014;12.052;2023-02-05T10:05:35;5.37;;;4.87;;
19038;SDS011;9652;49.014;12.052;2023-02-05T10:08:14;5.97;;;5.40;;
19038;SDS011;9652;49.014;12.052;2023-02-05T10:10:51;5.13;;;4.73;;
19038;SDS011;9652;49.014;12.052;2023-02-05T10:13:29;5.30;;;4.90;;
19038;SDS011;9652;49.014;12.052;2023-02-05T10:16:05;5.50;;;5.00;;
19038;SDS011;9652;49.014;12.052;2023-02-05T10:18:56;5.13;;;4.63;;
19038;SDS011;9652;49.014;12.052;2023-02-05T10:24:56;4.53;;;4.23;;
19038;SDS011;9652;49.014;12.052;2023-02-05T10:27:57;5.30;;;4.57;;
19038;SDS011;9652;49.014;12.052;2023-02-05T10:30:36;5.60;;;5.03;;
19038;SDS011;9652;49.014;12.052;2023-02-05T10:33:16;4.70;;;4.30;;
19038;SDS011;9652;49.014;12.052;2023-02-05T10:35:55;5.00;;;4.60;;
19038;SDS011;9652;49.014;12.052;2023-02-05T10:38:28;4.73;;;4.23;;
19038;SDS011;9652;49.014;12.052;2023-02-05T10:41:02;4.50;;;4.20;;
19038;SDS011;9652;49.014;12.052;2023-02-05T10:43:49;5.17;;;4.67;;
19038;SDS011;9652;49.014;12.052;2023-02-05T10:46:26;5.40;;;4.27;;
19038;SDS011;9652;49.014;12.052;2023-02-05T10:49:00;4.67;;;4.27;;
19038;SDS011;9652;49.014;12.052;2023-02-05T10:51:38;5.67;;;4.10;;
19038;SDS011;9652;49.014;12.052;2023-02-05T10:54:13;5.97;;;4.73;;
19038;SDS011;9652;49.014;12.052;2023-02-05T10:56:46;4.23;;;3.93;;
19038;SDS011;9652;49.014;12.052;2023-02-05T10:59:15;4.43;;;4.03;;
19038;SDS011;9652;49.014;12.052;2023-02-05T11:01:50;4.53;;;4.17;;
19038;SDS011;9652;49.014;12.052;2023-02-05T11:04:21;5.07;;;4.57;;
19038;SDS011;9652;49.014;12.052;2023-02-05T11:07:00;6.00;;;4.90;;
19038;SDS011;9652;49.014;12.052;2023-02-05T11:09:31;4.10;;;3.80;;
19038;SDS011;9652;49.014;12.052;2023-02-05T11:12:01;4.70;;;4.40;;
19038;SDS011;9652;49.014;12.052;2023-02-05T11:14:32;4.40;;;4.10;;
19038;SDS011;9652;49.014;12.052;2023-02-05T11:17:05;5.00;;;4.60;;
19038;SDS011;9652;49.014;12.052;2023-02-05T11:19:50;4.37;;;3.97;;
19038;SDS011;9652;49.014;12.052;2023-02-05T11:22:23;4.87;;;4.43;;
19038;SDS011;9652;49.014;12.052;2023-02-05T11:25:03;4.30;;;3.90;;
19038;SDS011;9652;49.014;12.052;2023-02-05T11:27:38;4.67;;;4.30;;
19038;SDS011;9652;49.014;12.052;2023-02-05T11:30:16;4.47;;;4.10;;
19038;SDS011;9652;49.014;12.052;2023-02-05T11:32:52;4.37;;;3.97;;
19038;SDS011;9652;49.014;12.052;2023-02-05T11:35:21;5.10;;;4.60;;
19038;SDS011;9652;49.014;12.052;2023-02-05T11:38:04;4.70;;;4.27;;
19038;SDS011;9652;49.014;12.052;2023-02-05T11:40:35;4.30;;;3.90;;
19038;SDS011;9652;49.014;12.052;2023-02-05T11:43:03;4.30;;;4.00;;
19038;SDS011;9652;49.014;12.052;2023-02-05T11:45:34;4.50;;;4.10;;
19038;SDS011;9652;49.014;12.052;2023-02-05T11:48:10;4.63;;;4.17;;
19038;SDS011;9652;49.014;12.052;2023-02-05T11:50:53;4.90;;;4.40;;
19038;SDS011;9652;49.014;12.052;2023-02-05T11:53:20;4.50;;;4.10;;
19038;SDS011;9652;49.014;12.052;2023-02-05T11:55:52;4.00;;;3.70;;
19038;SDS011;9652;49.014;12.052;2023-02-05T11:58:24;4.53;;;4.13;;
19038;SDS011;9652;49.014;12.052;2023-02-05T12:00:55;4.20;;;3.57;;
19038;SDS011;9652;49.014;12.052;2023-02-05T12:03:27;4.30;;;3.90;;
19038;SDS011;9652;49.014;12.052;2023-02-05T12:06:02;4.17;;;3.87;;
19038;SDS011;9652;49.014;12.052;2023-02-05T12:08:42;5.00;;;4.47;;
19038;SDS011;9652;49.014;12.052;2023-02-05T12:11:22;4.00;;;3.70;;
19038;SDS011;9652;49.014;12.052;2023-02-05T12:14:38;4.60;;;4.20;;
19038;SDS011;9652;49.014;12.052;2023-02-05T12:17:17;4.70;;;4.30;;
19038;SDS011;9652;49.014;12.052;2023-02-05T12:20:18;4.27;;;3.97;;
19038;SDS011;9652;49.014;12.052;2023-02-05T12:26:07;4.67;;;4.27;;
19038;SDS011;9652;49.014;12.052;2023-02-05T12:28:58;4.87;;;4.40;;
19038;SDS011;9652;49.014;12.052;2023-02-05T12:31:50;4.00;;;3.70;;
19038;SDS011;9652;49.014;12.052;2023-02-05T12:34:27;4.20;;;3.87;;
19038;SDS011;9652;49.014;12.052;2023-02-05T12:37:14;4.37;;;3.77;;
19038;SDS011;9652;49.014;12.052;2023-02-05T12:39:58;4.77;;;4.33;;
19038;SDS011;9652;49.014;12.052;2023-02-05T12:42:39;3.83;;;3.53;;
19038;SDS011;9652;49.014;12.052;2023-02-05T12:45:28;4.53;;;4.23;;
19038;SDS011;9652;49.014;12.052;2023-02-05T12:48:14;3.40;;;3.20;;
19038;SDS011;9652;49.014;12.052;2023-02-05T12:51:06;3.83;;;3.53;;
19038;SDS011;9652;49.014;12.052;2023-02-05T12:53:55;4.23;;;3.90;;
19038;SDS011;9652;49.014;12.052;2023-02-05T12:56:54;3.97;;;3.67;;
19038;SDS011;9652;49.014;12.052;2023-02-05T12:59:29;3.40;;;3.20;;
19038;SDS011;9652;49.014;12.052;2023-02-05T13:02:04;3.73;;;3.43;;
19038;SDS011;9652;49.014;12.052;2023-02-05T13:04:43;4.63;;;4.23;;
19038;SDS011;9652;49.014;12.052;2023-02-05T13:07:20;5.63;;;3.40;;
19038;SDS011;9652;49.014;12.052;2023-02-05T13:09:59;3.70;;;3.40;;
19038;SDS011;9652;49.014;12.052;2023-02-05T13:12:31;3.50;;;3.30;;
19038;SDS011;9652;49.014;12.052;2023-02-05T13:15:06;4.43;;;4.00;;
19038;SDS011;9652;49.014;12.052;2023-02-05T13:17:46;4.20;;;3.93;;
19038;SDS011;9652;49.014;12.052;2023-02-05T13:20:26;4.10;;;3.80;;
19038;SDS011;9652;49.014;12.052;2023-02-05T13:23:18;3.67;;;3.47;;
19038;SDS011;9652;49.014;12.052;2023-02-05T13:26:05;4.20;;;3.90;;
19038;SDS011;9652;49.014;12.052;2023-02-05T13:28:56;4.27;;;3.87;;
19038;SDS011;9652;49.014;12.052;2023-02-05T13:31:32;4.57;;;3.83;;
19038;SDS011;9652;49.014;12.052;2023-02-05T13:34:05;3.80;;;3.60;;
19038;SDS011;9652;49.014;12.052;2023-02-05T13:40:04;3.73;;;3.40;;
19038;SDS011;9652;49.014;12.052;2023-02-05T13:46:23;4.33;;;3.90;;
19038;SDS011;9652;49.014;12.052;2023-02-05T13:52:33;3.77;;;3.47;;
19038;SDS011;9652;49.014;12.052;2023-02-05T13:58:44;4.17;;;3.77;;
19038;SDS011;9652;49.014;12.052;2023-02-05T14:01:18;3.77;;;3.50;;
19038;SDS011;9652;49.014;12.052;2023-02-05T14:03:57;5.43;;;4.93;;
19038;SDS011;9652;49.014;12.052;2023-02-05T14:06:29;3.80;;;3.50;;
19038;SDS011;9652;49.014;12.052;2023-02-05T14:09:02;4.03;;;3.73;;
19038;SDS011;9652;49.014;12.052;2023-02-05T14:11:48;4.33;;;4.00;;
19038;SDS011;9652;49.014;12.052;2023-02-05T14:14:23;3.67;;;3.47;;
19038;SDS011;9652;49.014;12.052;2023-02-05T14:16:54;3.87;;;3.57;;
19038;SDS011;9652;49.014;12.052;2023-02-05T14:19:24;4.00;;;3.70;;
19038;SDS011;9652;49.014;12.052;2023-02-05T14:22:37;3.83;;;3.53;;
19038;SDS011;9652;49.014;12.052;2023-02-05T14:28:32;3.63;;;3.33;;
19038;SDS011;9652;49.014;12.052;2023-02-05T14:31:09;4.67;;;4.27;;
19038;SDS011;9652;49.014;12.052;2023-02-05T14:34:27;4.03;;;3.73;;
19038;SDS011;9652;49.014;12.052;2023-02-05T14:37:29;3.70;;;3.50;;
19038;SDS011;9652;49.014;12.052;2023-02-05T14:40:25;4.10;;;3.80;;
19038;SDS011;9652;49.014;12.052;2023-02-05T14:42:57;4.70;;;4.03;;
19038;SDS011;9652;49.014;12.052;2023-02-05T14:45:30;4.53;;;4.23;;
19038;SDS011;9652;49.014;12.052;2023-02-05T14:47:59;4.40;;;4.10;;
19038;SDS011;9652;49.014;12.052;2023-02-05T14:50:27;4.37;;;4.03;;
19038;SDS011;9652;49.014;12.052;2023-02-05T14:52:56;5.30;;;4.87;;
19038;SDS011;9652;49.014;12.052;2023-02-05T14:55:26;4.10;;;3.73;;
19038;SDS011;9652;49.014;12.052;2023-02-05T14:58:01;4.23;;;3.83;;
19038;SDS011;9652;49.014;12.052;2023-02-05T15:00:34;4.40;;;4.10;;
19038;SDS011;9652;49.014;12.052;2023-02-05T15:03:19;4.57;;;4.17;;
19038;SDS011;9652;49.014;12.052;2023-02-05T15:06:01;4.03;;;3.83;;
19038;SDS011;9652;49.014;12.052;2023-02-05T15:08:35;4.00;;;3.70;;
19038;SDS011;9652;49.014;12.052;2023-02-05T15:11:32;4.43;;;4.13;;
19038;SDS011;9652;49.014;12.052;2023-02-05T15:14:24;4.00;;;3.70;;
19038;SDS011;9652;49.014;12.052;2023-02-05T15:20:18;4.90;;;4.40;;
19038;SDS011;9652;49.014;12.052;2023-02-05T15:22:54;4.73;;;4.30;;
19038;SDS011;9652;49.014;12.052;2023-02-05T15:25:40;4.07;;;3.77;;
19038;SDS011;9652;49.014;12.052;2023-02-05T15:31:08;3.90;;;3.60;;
19038;SDS011;9652;49.014;12.052;2023-02-05T15:33:55;3.90;;;3.60;;
19038;SDS011;9652;49.014;12.052;2023-02-05T15:36:45;4.17;;;3.87;;
19038;SDS011;9652;49.014;12.052;2023-02-05T15:39:22;4.30;;;4.00;;
19038;SDS011;9652;49.014;12.052;2023-02-05T15:41:57;4.50;;;4.10;;
19038;SDS011;9652;49.014;12.052;2023-02-05T15:44:27;4.20;;;3.90;;
19038;SDS011;9652;49.014;12.052;2023-02-05T15:46:57;4.83;;;3.90;;
19038;SDS011;9652;49.014;12.052;2023-02-05T15:49:30;4.60;;;4.20;;
19038;SDS011;9652;49.014;12.052;2023-02-05T15:52:02;5.43;;;4.10;;
19038;SDS011;9652;49.014;12.052;2023-02-05T15:54:31;5.07;;;4.67;;